createdAt,value
2018-12-19T00:00:36.371Z,6.10
2018-12-19T00:03:04.604Z,5.10
2018-12-19T00:05:32.815Z,6.00
2018-12-19T00:08:01.131Z,6.60
2018-12-19T00:10:29.652Z,6.77
2018-12-19T00:12:57.992Z,6.97
2018-12-19T00:15:26.230Z,6.43
2018-12-19T00:17:54.463Z,7.50
2018-12-19T00:20:22.711Z,6.87
2018-12-19T00:22:51.049Z,7.60
2018-12-19T00:25:19.332Z,5.90
2018-12-19T00:27:47.581Z,7.03
2018-12-19T00:30:16.441Z,6.63
2018-12-19T00:32:44.716Z,6.20
2018-12-19T00:35:13.181Z,6.73
2018-12-19T00:37:41.420Z,7.23
2018-12-19T00:40:09.670Z,6.00
2018-12-19T00:42:37.945Z,5.50
2018-12-19T00:45:06.281Z,6.40
2018-12-19T00:47:34.513Z,6.43
2018-12-19T00:50:03.039Z,6.20
2018-12-19T00:52:31.395Z,6.70
2018-12-19T00:54:59.615Z,6.40
2018-12-19T00:57:27.932Z,7.07
2018-12-19T00:59:56.191Z,5.60
2018-12-19T01:02:24.628Z,7.30
2018-12-19T01:04:53.437Z,6.30
2018-12-19T01:07:21.815Z,6.73
2018-12-19T01:09:50.167Z,6.30
2018-12-19T01:12:18.379Z,6.70
2018-12-19T01:14:46.608Z,6.43
2018-12-19T01:17:14.832Z,7.00
2018-12-19T01:19:43.060Z,6.83
2018-12-19T01:22:11.328Z,7.20
2018-12-19T01:24:39.564Z,6.67
2018-12-19T01:27:07.799Z,6.40
2018-12-19T01:29:36.120Z,7.40
2018-12-19T01:32:04.349Z,6.07
2018-12-19T01:34:32.578Z,6.40
2018-12-19T01:37:01.127Z,6.93
2018-12-19T01:39:29.557Z,7.70
2018-12-19T01:41:57.811Z,7.03
2018-12-19T01:44:26.219Z,6.33
2018-12-19T01:46:55.402Z,6.00
2018-12-19T01:49:24.027Z,6.20
2018-12-19T01:51:52.324Z,6.97
2018-12-19T01:54:20.671Z,7.60
2018-12-19T01:56:48.994Z,7.33
2018-12-19T01:59:17.225Z,7.40
2018-12-19T02:01:45.448Z,6.67
2018-12-19T02:04:13.722Z,6.50
2018-12-19T02:06:42.452Z,6.27
2018-12-19T02:09:10.840Z,7.30
2018-12-19T02:11:39.117Z,7.10
2018-12-19T02:14:07.374Z,7.07
2018-12-19T02:16:35.623Z,7.70
2018-12-19T02:19:03.967Z,7.37
2018-12-19T02:21:32.200Z,7.27
2018-12-19T02:24:00.504Z,6.50
2018-12-19T02:26:28.838Z,7.63
2018-12-19T02:28:57.164Z,7.33
2018-12-19T02:31:25.392Z,7.80
2018-12-19T02:33:53.865Z,7.80
2018-12-19T02:36:22.156Z,7.00
2018-12-19T02:38:50.423Z,7.97
2018-12-19T02:41:18.702Z,9.10
2018-12-19T02:43:46.945Z,9.67
2018-12-19T02:46:15.201Z,9.03
2018-12-19T02:48:44.378Z,8.80
2018-12-19T02:51:12.639Z,8.03
2018-12-19T02:53:41.048Z,7.40
2018-12-19T02:56:09.360Z,7.10
2018-12-19T02:58:38.553Z,7.37
2018-12-19T03:01:06.781Z,8.07
2018-12-19T03:03:35.072Z,7.90
2018-12-19T03:06:03.319Z,8.90
2018-12-19T03:08:31.569Z,8.70
2018-12-19T03:11:00.033Z,10.03
2018-12-19T03:13:28.871Z,10.20
2018-12-19T03:15:57.128Z,9.30
2018-12-19T03:18:25.684Z,10.00
2018-12-19T03:20:53.936Z,8.77
2018-12-19T03:23:22.173Z,9.67
2018-12-19T03:25:50.455Z,10.23
2018-12-19T03:28:20.636Z,9.47
2018-12-19T03:30:49.917Z,9.30
2018-12-19T03:33:18.196Z,10.53
2018-12-19T03:35:46.676Z,8.40
2018-12-19T03:38:16.948Z,8.27
2018-12-19T03:40:45.304Z,8.10
2018-12-19T03:43:13.548Z,8.50
2018-12-19T03:45:41.891Z,7.27
2018-12-19T03:48:12.153Z,8.63
2018-12-19T03:50:40.371Z,7.60
2018-12-19T03:53:08.624Z,7.53
2018-12-19T03:55:36.864Z,7.43
2018-12-19T03:58:05.114Z,8.37
2018-12-19T04:00:33.441Z,7.00
2018-12-19T04:03:01.991Z,7.50
2018-12-19T04:05:30.300Z,7.20
2018-12-19T04:07:58.554Z,6.67
2018-12-19T04:10:26.802Z,8.03
2018-12-19T04:12:55.085Z,7.90
2018-12-19T04:15:23.366Z,6.13
2018-12-19T04:17:51.677Z,7.13
2018-12-19T04:20:19.940Z,7.60
2018-12-19T04:22:48.215Z,6.73
2018-12-19T04:25:16.441Z,6.67
2018-12-19T04:27:44.685Z,7.67
2018-12-19T04:30:12.915Z,8.00
2018-12-19T04:32:41.267Z,8.77
2018-12-19T04:35:09.616Z,7.90
2018-12-19T04:37:37.873Z,8.10
2018-12-19T04:40:06.312Z,9.10
2018-12-19T04:42:34.693Z,8.60
2018-12-19T04:45:02.997Z,8.67
2018-12-19T04:47:31.620Z,9.43
2018-12-19T04:49:59.891Z,9.57
2018-12-19T04:52:28.166Z,8.60
2018-12-19T04:54:56.511Z,9.90
2018-12-19T04:57:24.743Z,7.97
2018-12-19T04:59:53.004Z,9.03
2018-12-19T05:02:21.262Z,9.47
2018-12-19T05:04:49.499Z,8.63
2018-12-19T05:07:19.117Z,8.50
2018-12-19T05:09:47.413Z,8.17
2018-12-19T05:12:15.726Z,9.00
2018-12-19T05:14:44.208Z,8.23
2018-12-19T05:17:12.473Z,8.97
2018-12-19T05:19:41.209Z,8.43
2018-12-19T05:22:09.455Z,8.40
2018-12-19T05:24:37.672Z,8.70
2018-12-19T05:27:05.891Z,8.83
2018-12-19T05:29:34.194Z,8.53
2018-12-19T05:32:02.487Z,9.77
2018-12-19T05:34:30.830Z,10.00
2018-12-19T05:36:59.131Z,10.53
2018-12-19T05:39:27.364Z,10.37
2018-12-19T05:41:55.723Z,9.50
2018-12-19T05:44:23.981Z,10.80
2018-12-19T05:46:52.212Z,9.70
2018-12-19T05:49:20.493Z,10.10
2018-12-19T05:51:48.824Z,10.10
2018-12-19T05:54:17.122Z,10.50
2018-12-19T05:56:45.418Z,10.40
2018-12-19T05:59:13.664Z,10.73
2018-12-19T06:01:41.915Z,10.67
2018-12-19T06:04:10.235Z,10.70
2018-12-19T06:06:38.514Z,11.37
2018-12-19T06:09:06.776Z,9.80
2018-12-19T06:11:35.088Z,10.20
2018-12-19T06:14:03.624Z,10.27
2018-12-19T06:16:32.245Z,9.80
2018-12-19T06:19:00.503Z,11.00
2018-12-19T06:21:28.847Z,10.40
2018-12-19T06:23:57.156Z,11.17
2018-12-19T06:26:25.650Z,10.57
2018-12-19T06:28:53.892Z,12.60
2018-12-19T06:31:22.179Z,11.67
2018-12-19T06:33:50.761Z,10.23
2018-12-19T06:36:19.050Z,10.53
2018-12-19T06:38:47.325Z,11.77
2018-12-19T06:41:15.593Z,11.47
2018-12-19T06:43:45.464Z,11.00
2018-12-19T06:46:13.673Z,11.90
2018-12-19T06:48:41.958Z,11.30
2018-12-19T06:51:10.249Z,12.00
2018-12-19T06:53:38.504Z,12.47
2018-12-19T06:56:06.752Z,12.87
2018-12-19T06:58:35.194Z,13.00
2018-12-19T07:01:04.042Z,11.87
2018-12-19T07:03:32.319Z,11.90
2018-12-19T07:06:00.614Z,13.03
2018-12-19T07:08:28.867Z,12.50
2018-12-19T07:10:57.072Z,11.40
2018-12-19T07:13:25.327Z,12.07
2018-12-19T07:15:53.604Z,11.87
2018-12-19T07:18:21.862Z,11.97
2018-12-19T07:20:50.129Z,11.77
2018-12-19T07:23:18.378Z,11.10
2018-12-19T07:25:46.716Z,11.67
2018-12-19T07:28:15.028Z,11.70
2018-12-19T07:30:43.276Z,12.07
2018-12-19T07:33:11.526Z,10.83
2018-12-19T07:35:39.772Z,11.33
2018-12-19T07:38:08.036Z,12.73
2018-12-19T07:40:36.300Z,12.37
2018-12-19T07:43:04.658Z,11.23
2018-12-19T07:45:32.873Z,10.00
2018-12-19T07:48:02.192Z,12.47
2018-12-19T07:50:30.434Z,10.97
2018-12-19T07:52:58.773Z,11.63
2018-12-19T07:55:28.918Z,11.70
2018-12-19T07:57:57.211Z,11.20
2018-12-19T08:00:27.574Z,11.70
2018-12-19T08:02:55.633Z,10.90
2018-12-19T08:08:16.096Z,10.23
2018-12-19T08:10:44.323Z,9.80
2018-12-19T08:13:12.578Z,10.80
2018-12-19T08:15:40.836Z,10.93
2018-12-19T08:18:09.452Z,10.40
2018-12-19T08:20:37.703Z,11.37
2018-12-19T08:23:06.068Z,11.90
2018-12-19T08:25:34.381Z,10.90
2018-12-19T08:28:02.765Z,9.80
2018-12-19T08:30:30.979Z,11.70
2018-12-19T08:32:59.523Z,10.87
2018-12-19T08:35:28.021Z,10.73
2018-12-19T08:37:56.257Z,10.10
2018-12-19T08:40:24.653Z,10.50
2018-12-19T08:42:52.839Z,10.60
2018-12-19T08:45:21.455Z,11.03
2018-12-19T08:47:49.717Z,10.47
2018-12-19T08:50:17.976Z,11.53
2018-12-19T08:52:46.202Z,9.10
2018-12-19T08:55:14.518Z,9.57
2018-12-19T08:57:42.732Z,9.67
2018-12-19T09:00:11.844Z,9.90
2018-12-19T09:02:40.099Z,10.00
2018-12-19T09:05:08.369Z,9.37
2018-12-19T09:07:36.616Z,9.83
2018-12-19T09:10:06.839Z,10.87
2018-12-19T09:12:35.137Z,9.23
2018-12-19T09:15:04.561Z,10.30
2018-12-19T09:17:32.866Z,10.37
2018-12-19T09:20:01.542Z,8.40
2018-12-19T09:22:29.852Z,8.67
2018-12-19T09:24:58.027Z,8.80
2018-12-19T09:27:26.297Z,9.40
2018-12-19T09:29:54.537Z,8.80
2018-12-19T09:32:22.767Z,9.00
2018-12-19T09:34:51.034Z,8.37
2018-12-19T09:37:19.297Z,9.10
2018-12-19T09:39:47.532Z,9.03
2018-12-19T09:42:15.912Z,8.70
2018-12-19T09:44:44.239Z,8.20
2018-12-19T09:47:12.446Z,8.10
2018-12-19T09:49:40.685Z,8.53
2018-12-19T09:52:09.067Z,8.60
2018-12-19T09:54:37.282Z,8.03
2018-12-19T09:57:05.502Z,9.50
2018-12-19T09:59:33.790Z,9.00
2018-12-19T10:02:02.038Z,8.70
2018-12-19T10:04:30.289Z,7.50
2018-12-19T10:06:58.561Z,7.60
2018-12-19T10:09:26.807Z,7.97
2018-12-19T10:11:55.287Z,7.57
2018-12-19T10:14:23.604Z,8.00
2018-12-19T10:16:51.857Z,7.60
2018-12-19T10:19:20.093Z,6.90
2018-12-19T10:21:48.489Z,6.60
2018-12-19T10:24:16.726Z,7.00
2018-12-19T10:26:44.980Z,6.53
2018-12-19T10:29:13.264Z,7.30
2018-12-19T10:31:41.507Z,7.20
2018-12-19T10:34:09.735Z,6.97
2018-12-19T10:36:38.001Z,6.30
2018-12-19T10:39:12.460Z,6.80
2018-12-19T10:41:40.711Z,7.03
2018-12-19T10:44:09.183Z,6.30
2018-12-19T10:46:38.344Z,5.83
2018-12-19T10:49:06.711Z,6.90
2018-12-19T10:51:34.947Z,5.40
2018-12-19T10:54:03.160Z,6.37
2018-12-19T10:56:31.472Z,5.57
2018-12-19T10:58:59.724Z,6.60
2018-12-19T11:01:28.023Z,5.43
2018-12-19T11:03:56.251Z,5.47
2018-12-19T11:06:24.493Z,5.97
2018-12-19T11:08:52.723Z,5.77
2018-12-19T11:11:21.066Z,6.20
2018-12-19T11:13:50.540Z,5.60
2018-12-19T11:16:18.918Z,6.03
2018-12-19T11:18:47.157Z,5.13
2018-12-19T11:21:15.432Z,6.77
2018-12-19T11:23:43.675Z,5.50
2018-12-19T11:26:12.218Z,5.80
2018-12-19T11:28:40.565Z,5.13
2018-12-19T11:31:09.013Z,5.30
2018-12-19T11:33:37.251Z,5.37
2018-12-19T11:36:05.712Z,4.67
2018-12-19T11:38:34.073Z,4.73
2018-12-19T11:41:03.415Z,5.23
2018-12-19T11:43:31.729Z,5.43
2018-12-19T11:46:00.555Z,5.37
2018-12-19T11:48:28.803Z,5.53
2018-12-19T11:50:57.040Z,5.70
2018-12-19T11:53:25.753Z,5.30
2018-12-19T11:55:54.010Z,4.73
2018-12-19T11:58:22.420Z,4.40
2018-12-19T12:00:51.022Z,4.70
2018-12-19T12:03:19.391Z,4.13
2018-12-19T12:05:47.915Z,4.87
2018-12-19T12:08:16.419Z,4.23
2018-12-19T12:10:44.785Z,4.53
2018-12-19T12:13:17.975Z,4.30
2018-12-19T12:15:46.223Z,4.73
2018-12-19T12:18:14.787Z,3.40
2018-12-19T12:20:43.032Z,4.57
2018-12-19T12:23:11.313Z,3.60
2018-12-19T12:25:39.589Z,4.30
2018-12-19T12:28:08.195Z,4.40
2018-12-19T12:30:36.431Z,3.37
2018-12-19T12:33:04.797Z,4.70
2018-12-19T12:35:33.465Z,3.13
2018-12-19T12:38:01.875Z,3.60
2018-12-19T12:40:30.227Z,3.23
2018-12-19T12:42:58.679Z,3.47
2018-12-19T12:45:27.399Z,3.70
2018-12-19T12:47:56.057Z,3.27
2018-12-19T12:50:24.339Z,3.50
2018-12-19T12:52:52.673Z,3.30
2018-12-19T12:55:21.013Z,4.10
2018-12-19T12:57:49.261Z,3.60
2018-12-19T13:00:17.528Z,3.77
2018-12-19T13:02:45.799Z,5.63
2018-12-19T13:05:14.026Z,4.57
2018-12-19T13:07:42.263Z,4.60
2018-12-19T13:10:10.647Z,4.33
2018-12-19T13:12:38.936Z,5.10
2018-12-19T13:15:07.336Z,4.67
2018-12-19T13:17:35.619Z,6.20
2018-12-19T13:20:05.827Z,5.53
2018-12-19T13:22:34.132Z,5.20
2018-12-19T13:25:02.347Z,5.50
2018-12-19T13:27:30.691Z,4.73
2018-12-19T13:29:59.072Z,4.93
2018-12-19T13:32:27.327Z,4.30
2018-12-19T13:34:55.682Z,4.30
2018-12-19T13:37:23.983Z,4.40
2018-12-19T13:39:52.230Z,5.13
2018-12-19T13:42:20.470Z,5.40
2018-12-19T13:44:49.235Z,5.00
2018-12-19T13:47:17.722Z,4.53
2018-12-19T13:49:46.408Z,4.73
2018-12-19T13:52:14.801Z,4.20
2018-12-19T13:54:43.184Z,4.90
2018-12-19T13:57:11.463Z,4.90
2018-12-19T13:59:39.977Z,4.93
2018-12-19T14:02:08.586Z,4.50
2018-12-19T14:04:37.088Z,4.10
2018-12-19T14:07:06.280Z,4.30
2018-12-19T14:09:34.783Z,4.37
2018-12-19T14:12:03.063Z,4.30
2018-12-19T14:14:31.330Z,4.10
2018-12-19T14:16:59.572Z,4.77
2018-12-19T14:19:27.879Z,4.00
2018-12-19T14:21:56.148Z,3.70
2018-12-19T14:24:24.656Z,3.73
2018-12-19T14:26:52.941Z,4.27
2018-12-19T14:29:21.191Z,4.00
2018-12-19T14:31:49.460Z,3.77
2018-12-19T14:34:17.695Z,4.73
2018-12-19T14:36:45.968Z,4.17
2018-12-19T14:39:14.208Z,4.10
2018-12-19T14:41:42.449Z,4.13
2018-12-19T14:44:10.684Z,4.00
2018-12-19T14:46:38.953Z,3.97
2018-12-19T14:49:13.792Z,3.73
2018-12-19T14:51:37.439Z,4.23
2018-12-19T14:54:05.725Z,3.77
2018-12-19T14:56:34.053Z,3.73
2018-12-19T14:59:02.863Z,4.00
2018-12-19T15:01:31.163Z,3.87
2018-12-19T15:03:59.427Z,3.60
2018-12-19T15:06:27.687Z,3.40
2018-12-19T15:08:56.894Z,3.50
2018-12-19T15:11:25.166Z,3.90
2018-12-19T15:13:54.305Z,3.70
2018-12-19T15:16:23.488Z,3.20
2018-12-19T15:18:51.752Z,3.30
2018-12-19T15:21:20.081Z,3.10
2018-12-19T15:23:48.328Z,3.47
2018-12-19T15:26:16.602Z,3.20
2018-12-19T15:28:44.869Z,3.60
2018-12-19T15:31:13.151Z,3.07
2018-12-19T15:33:41.404Z,3.57
2018-12-19T15:36:09.811Z,3.23
2018-12-19T15:38:38.313Z,3.50
2018-12-19T15:41:06.611Z,3.47
2018-12-19T15:43:34.826Z,4.07
2018-12-19T15:46:03.244Z,3.47
2018-12-19T15:48:31.454Z,3.30
2018-12-19T15:50:59.697Z,3.43
2018-12-19T15:53:28.105Z,3.83
2018-12-19T15:55:56.729Z,3.17
2018-12-19T15:58:25.084Z,3.40
2018-12-19T16:00:53.330Z,3.87
2018-12-19T16:03:21.626Z,4.10
2018-12-19T16:05:49.930Z,3.63
2018-12-19T16:08:18.173Z,3.37
2018-12-19T16:10:46.800Z,4.30
2018-12-19T16:13:15.006Z,3.40
2018-12-19T16:15:44.520Z,4.20
2018-12-19T16:18:13.139Z,3.57
2018-12-19T16:20:41.560Z,3.63
2018-12-19T16:23:10.403Z,3.10
2018-12-19T16:25:38.773Z,3.87
2018-12-19T16:28:07.178Z,4.53
2018-12-19T16:30:35.924Z,3.77
2018-12-19T16:33:04.709Z,4.27
2018-12-19T16:35:33.432Z,4.00
2018-12-19T16:38:02.370Z,4.13
2018-12-19T16:40:30.879Z,3.70
2018-12-19T16:42:59.068Z,3.73
2018-12-19T16:45:27.336Z,3.37
2018-12-19T16:47:55.803Z,3.47
2018-12-19T16:50:24.128Z,4.00
2018-12-19T16:52:52.458Z,3.80
2018-12-19T16:55:20.681Z,3.97
2018-12-19T16:57:48.892Z,3.93
2018-12-19T17:00:17.275Z,3.93
2018-12-19T17:02:45.907Z,4.17
2018-12-19T17:05:14.541Z,3.80
2018-12-19T17:07:42.731Z,3.40
2018-12-19T17:10:11.235Z,3.93
2018-12-19T17:12:39.647Z,3.70
2018-12-19T17:15:07.951Z,3.30
2018-12-19T17:17:36.330Z,3.67
2018-12-19T17:20:06.083Z,3.73
2018-12-19T17:22:34.566Z,3.83
2018-12-19T17:25:03.642Z,3.60
2018-12-19T17:27:32.188Z,4.57
2018-12-19T17:30:00.627Z,3.67
2018-12-19T17:32:29.408Z,3.97
2018-12-19T17:34:57.640Z,4.13
2018-12-19T17:37:25.924Z,4.10
2018-12-19T17:39:54.168Z,4.43
2018-12-19T17:42:22.447Z,3.77
2018-12-19T17:44:50.695Z,4.80
2018-12-19T17:47:18.966Z,4.43
2018-12-19T17:49:47.175Z,4.50
2018-12-19T17:52:15.454Z,4.97
2018-12-19T17:54:43.695Z,4.30
2018-12-19T17:57:11.931Z,4.33
2018-12-19T17:59:40.187Z,5.03
2018-12-19T18:02:08.457Z,4.07
2018-12-19T18:04:36.710Z,4.03
2018-12-19T18:07:05.023Z,5.20
2018-12-19T18:09:33.276Z,5.07
2018-12-19T18:12:01.548Z,4.30
2018-12-19T18:14:29.779Z,4.23
2018-12-19T18:16:57.995Z,3.50
2018-12-19T18:19:26.223Z,4.27
2018-12-19T18:21:54.886Z,3.70
2018-12-19T18:24:23.109Z,3.77
2018-12-19T18:26:51.340Z,4.50
2018-12-19T18:29:19.617Z,4.30
2018-12-19T18:31:47.853Z,4.30
2018-12-19T18:34:16.164Z,4.10
2018-12-19T18:36:44.373Z,3.93
2018-12-19T18:39:12.612Z,4.33
2018-12-19T18:41:40.839Z,4.43
2018-12-19T18:44:09.084Z,3.83
2018-12-19T18:46:37.375Z,3.90
2018-12-19T18:49:05.663Z,4.17
2018-12-19T18:51:33.920Z,4.93
2018-12-19T18:54:02.167Z,5.20
2018-12-19T18:56:30.493Z,4.30
2018-12-19T18:58:58.730Z,4.90
2018-12-19T19:01:26.980Z,5.43
2018-12-19T19:03:55.285Z,5.87
2018-12-19T19:06:23.566Z,6.20
2018-12-19T19:08:52.016Z,6.33
2018-12-19T19:11:20.296Z,5.40
2018-12-19T19:13:48.533Z,6.70
2018-12-19T19:16:16.792Z,5.70
2018-12-19T19:18:45.085Z,5.17
2018-12-19T19:21:13.439Z,5.97
2018-12-19T19:23:41.789Z,5.60
2018-12-19T19:26:09.966Z,5.90
2018-12-19T19:28:38.237Z,5.60
2018-12-19T19:31:06.491Z,5.90
2018-12-19T19:33:34.770Z,6.00
2018-12-19T19:36:07.482Z,6.33
2018-12-19T19:38:38.303Z,6.63
2018-12-19T19:41:06.615Z,6.20
2018-12-19T19:43:34.909Z,5.67
2018-12-19T19:46:06.580Z,7.23
2018-12-19T19:48:36.154Z,5.83
2018-12-19T19:51:05.115Z,6.23
2018-12-19T19:53:33.614Z,5.93
2018-12-19T19:56:03.006Z,5.70
2018-12-19T19:58:33.168Z,6.33
2018-12-19T20:01:02.623Z,5.80
2018-12-19T20:03:31.666Z,6.03
2018-12-19T20:06:00.217Z,6.20
2018-12-19T20:08:28.513Z,5.23
2018-12-19T20:10:57.025Z,6.50
2018-12-19T20:13:33.089Z,5.70
2018-12-19T20:15:56.990Z,6.03
2018-12-19T20:18:25.426Z,5.60
2018-12-19T20:20:55.121Z,5.80
2018-12-19T20:23:23.644Z,6.37
2018-12-19T20:25:54.706Z,6.57
2018-12-19T20:28:24.136Z,6.33
2018-12-19T20:30:52.932Z,6.00
2018-12-19T20:33:21.434Z,6.53
2018-12-19T20:35:51.057Z,7.33
2018-12-19T20:38:20.098Z,6.60
2018-12-19T20:40:49.561Z,7.17
2018-12-19T20:43:18.524Z,7.10
2018-12-19T20:45:48.055Z,7.43
2018-12-19T20:48:17.704Z,7.20
2018-12-19T20:50:47.021Z,6.13
2018-12-19T20:53:16.733Z,6.90
2018-12-19T20:55:45.215Z,7.13
2018-12-19T20:58:14.453Z,7.27
2018-12-19T21:00:44.664Z,7.53
2018-12-19T21:03:14.390Z,7.13
2018-12-19T21:05:43.234Z,7.83
2018-12-19T21:08:11.560Z,6.90
2018-12-19T21:10:39.752Z,6.50
2018-12-19T21:13:08.036Z,6.50
2018-12-19T21:15:36.260Z,6.53
2018-12-19T21:18:11.168Z,7.40
2018-12-19T21:20:39.434Z,7.77
2018-12-19T21:23:07.670Z,7.40
2018-12-19T21:25:35.940Z,7.50
2018-12-19T21:28:04.147Z,7.93
2018-12-19T21:30:32.442Z,7.83
2018-12-19T21:33:00.769Z,7.00
2018-12-19T21:35:28.996Z,7.23
2018-12-19T21:37:57.302Z,8.27
2018-12-19T21:40:25.573Z,6.70
2018-12-19T21:42:53.857Z,7.90
2018-12-19T21:45:22.177Z,7.67
2018-12-19T21:47:50.639Z,7.67
2018-12-19T21:50:18.858Z,7.77
2018-12-19T21:52:47.334Z,9.10
2018-12-19T21:55:15.734Z,8.37
2018-12-19T21:57:44.049Z,7.93
2018-12-19T22:00:16.944Z,8.37
2018-12-19T22:02:45.586Z,9.30
2018-12-19T22:05:13.909Z,7.83
2018-12-19T22:07:42.160Z,8.90
2018-12-19T22:10:10.423Z,8.70
2018-12-19T22:12:38.755Z,8.40
2018-12-19T22:15:07.235Z,7.73
2018-12-19T22:17:41.233Z,9.00
2018-12-19T22:20:09.559Z,8.40
2018-12-19T22:22:37.964Z,8.30
2018-12-19T22:25:06.304Z,7.47
2018-12-19T22:27:34.552Z,7.87
2018-12-19T22:30:04.190Z,8.10
2018-12-19T22:32:32.423Z,9.00
2018-12-19T22:35:00.700Z,8.83
2018-12-19T22:37:28.953Z,8.23
2018-12-19T22:39:57.302Z,8.40
2018-12-19T22:42:25.544Z,8.90
2018-12-19T22:44:53.805Z,8.10
2018-12-19T22:47:22.083Z,7.63
2018-12-19T22:49:50.296Z,8.67
2018-12-19T22:52:18.589Z,7.63
2018-12-19T22:54:46.878Z,7.50
2018-12-19T22:57:15.159Z,7.83
2018-12-19T22:59:43.539Z,9.10
2018-12-19T23:02:17.370Z,7.53
2018-12-19T23:04:45.674Z,8.27
2018-12-19T23:07:13.955Z,8.50
2018-12-19T23:09:42.217Z,8.60
2018-12-19T23:12:10.487Z,9.30
2018-12-19T23:14:38.891Z,9.80
2018-12-19T23:17:12.941Z,9.70
2018-12-19T23:19:41.172Z,11.07
2018-12-19T23:22:09.708Z,10.30
2018-12-19T23:24:38.075Z,10.70
2018-12-19T23:27:06.299Z,9.40
2018-12-19T23:29:34.724Z,9.40
2018-12-19T23:32:03.051Z,10.30
2018-12-19T23:34:31.343Z,9.93
2018-12-19T23:36:59.763Z,9.83
2018-12-19T23:39:28.099Z,10.80
2018-12-19T23:41:56.455Z,10.70
2018-12-19T23:44:30.492Z,9.20
2018-12-19T23:46:59.006Z,9.33
2018-12-19T23:49:27.298Z,9.67
2018-12-19T23:51:55.676Z,10.27
2018-12-19T23:54:29.032Z,11.10
2018-12-19T23:56:54.249Z,9.20
2018-12-19T23:59:22.629Z,9.57
